Essex Junction, Vermont
Current Conditions -  °F | °C
As of 10:54 PM on Saturday 24 Jan 2015 (Local Time) from KBTV Reporting Station
Light Snow Light Snow  
Wind Chill: 25°   Ceiling: 2400
Heat Index: 30°   Visibility: 7mi
Dew Point: 24°   Wind: 5mph
Humidity: 79%   Direction: 270°W
Pressure: 29.31"   Gusts: NA
Location:  44.49°N, 73.11°W
Report Text: KBTV 250354Z 27004KT 7SM -SN OVC024 M01/M04 A2931 RMK AO2 SLP929 P0000 T10111044
Loading
Personal Weather Stations






























Interactive Weather Map New forecast layout! Learn more

10-Day Weather Forecast

Advertisements
Track Severe Weather on mobile